Time;durP1;ratioP1;P1;durP2;ratioP2;P2;SDS_P1;SDS_P2;PMS_P1;PMS_P2;Temp;Humidity;BMP_temperature;BMP_pressure;BME280_temperature;BME280_humidity;BME280_pressure;Samples;Min_cycle;Max_cycle;Signal;HPM_P1;HPM_P2
2022/10/08 00:00:35;;;;;;;5.20;2.10;;;13.00;96.40;;;;;;5050393;28;20056;-60
2022/10/08 00:03:01;;;;;;;7.25;2.08;;;13.10;96.50;;;;;;5050124;28;20101;-55
2022/10/08 00:05:26;;;;;;;13.20;5.47;;;13.10;96.50;;;;;;5049008;28;20036;-58
2022/10/08 00:07:53;;;;;;;16.52;5.80;;;13.10;96.50;;;;;;5050178;28;20025;-55
2022/10/08 00:10:20;;;;;;;12.05;3.00;;;13.10;96.60;;;;;;5050375;28;20425;-60
2022/10/08 00:12:46;;;;;;;3.97;1.63;;;13.10;96.60;;;;;;5050528;28;20067;-54
2022/10/08 00:15:11;;;;;;;9.05;2.40;;;13.10;96.60;;;;;;5050184;28;20520;-50
2022/10/08 00:17:37;;;;;;;8.02;2.20;;;13.20;96.70;;;;;;5050094;28;20083;-57
2022/10/08 00:20:02;;;;;;;8.55;2.45;;;13.20;96.70;;;;;;5052850;28;20055;-54
2022/10/08 00:22:28;;;;;;;7.90;2.10;;;13.30;96.70;;;;;;5053692;28;20150;-57
2022/10/08 00:24:54;;;;;;;5.45;1.80;;;13.30;96.70;;;;;;5054273;28;20028;-56
2022/10/08 00:27:22;;;;;;;7.95;2.15;;;13.40;96.70;;;;;;5054106;28;20021;-53
2022/10/08 00:29:49;;;;;;;6.07;1.80;;;13.40;96.60;;;;;;5053509;28;20385;-51
2022/10/08 00:32:16;;;;;;;8.70;2.95;;;13.40;96.60;;;;;;5054168;28;20021;-53
2022/10/08 00:34:42;;;;;;;8.70;2.33;;;13.40;96.50;;;;;;5053680;28;20037;-62
2022/10/08 00:37:07;;;;;;;8.60;2.45;;;13.50;96.50;;;;;;5053835;28;20067;-58
2022/10/08 00:39:33;;;;;;;5.88;2.22;;;13.50;96.50;;;;;;5053727;28;20063;-53
2022/10/08 00:42:01;;;;;;;9.07;2.28;;;13.50;96.50;;;;;;5054072;28;20555;-54
2022/10/08 00:44:58;;;;;;;5.10;2.63;;;13.60;96.60;;;;;;5053176;28;20565;-56
2022/10/08 00:47:34;;;;;;;9.30;2.38;;;13.60;96.50;;;;;;5053714;28;20025;-55
2022/10/08 00:50:08;;;;;;;10.65;2.63;;;13.60;96.50;;;;;;5053337;28;20078;-58
2022/10/08 00:52:57;;;;;;;8.80;2.40;;;13.60;96.60;;;;;;5053629;28;20132;-55
2022/10/08 00:55:26;;;;;;;10.70;2.40;;;13.60;96.60;;;;;;5053332;28;20025;-51
2022/10/08 00:57:57;;;;;;;7.88;2.42;;;13.60;96.70;;;;;;5053120;28;20027;-52
2022/10/08 01:00:24;;;;;;;14.65;5.57;;;13.60;96.70;;;;;;5053250;28;20061;-56
2022/10/08 01:02:51;;;;;;;12.30;3.30;;;13.60;96.70;;;;;;5053531;28;20028;-56
2022/10/08 01:05:22;;;;;;;6.25;2.38;;;13.60;96.80;;;;;;5053035;28;20497;-60
2022/10/08 01:08:08;;;;;;;8.98;2.75;;;13.60;97.10;;;;;;5052124;28;20017;-55
2022/10/08 01:11:02;;;;;;;5.93;2.65;;;13.60;97.00;;;;;;5053341;28;20101;-53
2022/10/08 01:13:48;;;;;;;5.57;2.20;;;13.60;97.00;;;;;;5053014;28;20497;-54
2022/10/08 01:16:30;;;;;;;8.25;2.10;;;13.60;97.10;;;;;;5053432;28;20490;-56
2022/10/08 01:19:25;;;;;;;8.75;2.92;;;13.60;97.20;;;;;;5052654;28;20041;-52
2022/10/08 01:22:28;;;;;;;6.47;3.03;;;13.60;97.40;;;;;;5053320;28;20397;-53
2022/10/08 01:27:50;;;;;;;6.22;2.55;;;13.50;97.80;;;;;;5052522;28;20048;-53
2022/10/08 01:30:17;;;;;;;7.13;2.90;;;13.50;98.20;;;;;;5052670;28;20477;-55
2022/10/08 01:32:57;;;;;;;5.07;2.25;;;13.40;98.70;;;;;;5051695;28;20025;-54
2022/10/08 01:35:28;;;;;;;9.57;2.80;;;13.40;98.80;;;;;;5052785;28;20040;-54
2022/10/08 01:37:58;;;;;;;11.07;3.30;;;13.40;99.20;;;;;;5052990;28;20082;-55
2022/10/08 01:40:35;;;;;;;6.93;3.40;;;13.30;99.60;;;;;;5052310;28;20126;-58
2022/10/08 01:43:05;;;;;;;10.25;5.07;;;13.30;99.90;;;;;;5052942;28;20488;-58
2022/10/08 01:45:36;;;;;;;14.32;5.88;;;13.30;99.80;;;;;;5052360;28;20021;-55
2022/10/08 01:48:07;;;;;;;6.97;3.03;;;13.20;99.90;;;;;;5052115;28;20036;-55
2022/10/08 01:50:40;;;;;;;6.18;2.80;;;13.20;99.90;;;;;;5052545;28;20025;-53
2022/10/08 01:53:12;;;;;;;7.22;2.63;;;13.20;99.90;;;;;;5051574;28;20028;-49
2022/10/08 01:55:41;;;;;;;7.80;2.92;;;13.10;99.90;;;;;;5052243;28;20156;-57
2022/10/08 01:58:15;;;;;;;4.43;2.30;;;13.10;99.90;;;;;;5052668;28;20017;-53
2022/10/08 02:00:41;;;;;;;7.05;2.30;;;13.10;99.90;;;;;;5051548;28;20037;-58
2022/10/08 02:03:10;;;;;;;4.97;1.98;;;13.10;99.90;;;;;;5052672;28;20029;-55
2022/10/08 02:05:40;;;;;;;5.72;2.30;;;13.10;99.90;;;;;;5051964;28;20025;-56
2022/10/08 02:08:06;;;;;;;8.63;3.13;;;13.00;99.90;;;;;;5052128;28;20104;-57
2022/10/08 02:10:32;;;;;;;7.40;2.45;;;13.00;99.90;;;;;;5052066;28;20471;-53
2022/10/08 02:12:58;;;;;;;7.30;3.03;;;13.00;99.90;;;;;;5052418;28;20036;-50
2022/10/08 02:15:47;;;;;;;7.90;2.40;;;13.00;99.90;;;;;;5051368;28;20096;-56
2022/10/08 02:18:33;;;;;;;6.80;2.40;;;13.00;99.90;;;;;;5051958;28;20474;-55
2022/10/08 02:21:00;;;;;;;8.18;2.92;;;13.00;99.90;;;;;;5052192;28;20496;-51
2022/10/08 02:23:31;;;;;;;14.48;6.03;;;13.00;99.90;;;;;;5051179;28;20071;-57
2022/10/08 02:26:12;;;;;;;7.65;4.30;;;12.90;99.90;;;;;;5052145;28;20473;-58
2022/10/08 02:28:48;;;;;;;;;;;12.90;99.90;;;;;;5051559;28;20025;-61
2022/10/08 02:31:28;;;;;;;4.88;2.90;;;12.80;99.90;;;;;;5052101;28;20371;-59
2022/10/08 02:34:05;;;;;;;6.70;3.00;;;12.80;99.90;;;;;;5052136;28;20028;-60
2022/10/08 02:36:35;;;;;;;10.05;3.25;;;12.80;99.90;;;;;;5051694;28;20029;-60
2022/10/08 02:39:03;;;;;;;8.80;3.30;;;12.80;99.90;;;;;;5052157;28;20428;-62
2022/10/08 02:41:33;;;;;;;7.82;3.22;;;12.80;99.90;;;;;;5051494;28;20468;-57
2022/10/08 02:44:04;;;;;;;6.68;2.72;;;12.70;99.90;;;;;;5051318;28;20029;-61
2022/10/08 02:46:36;;;;;;;12.27;2.80;;;12.70;99.90;;;;;;5051601;28;20048;-59
2022/10/08 02:49:18;;;;;;;5.97;2.83;;;12.70;99.90;;;;;;5051796;28;20040;-60
2022/10/08 02:51:48;;;;;;;8.43;2.90;;;12.70;99.90;;;;;;5049583;28;20082;-58
2022/10/08 02:54:16;;;;;;;10.60;4.45;;;12.70;99.90;;;;;;5051885;28;20030;-55
2022/10/08 02:57:05;;;;;;;9.35;4.10;;;12.70;99.90;;;;;;5050618;28;20029;-64
2022/10/08 02:59:32;;;;;;;9.45;4.63;;;12.70;99.90;;;;;;5051092;28;20017;-62
2022/10/08 03:02:01;;;;;;;6.88;4.13;;;12.70;99.90;;;;;;5051907;28;20112;-56
2022/10/08 03:04:29;;;;;;;11.18;5.53;;;12.70;99.90;;;;;;5050538;28;20051;-55
2022/10/08 03:06:57;;;;;;;10.45;5.65;;;12.70;99.90;;;;;;5051343;28;20502;-56
2022/10/08 03:09:24;;;;;;;8.60;5.35;;;12.70;99.90;;;;;;5051172;28;20147;-55
2022/10/08 03:11:51;;;;;;;12.10;6.30;;;12.70;99.90;;;;;;5050510;28;20485;-56
2022/10/08 03:14:19;;;;;;;9.13;5.90;;;12.60;99.90;;;;;;5051405;28;20163;-56
2022/10/08 03:16:46;;;;;;;11.63;6.03;;;12.60;99.90;;;;;;5050971;28;20017;-56
2022/10/08 03:19:14;;;;;;;11.50;6.53;;;12.60;99.90;;;;;;5050437;28;20099;-54
2022/10/08 03:21:41;;;;;;;11.77;6.50;;;12.60;99.90;;;;;;5051035;28;20411;-53
2022/10/08 03:24:09;;;;;;;11.30;6.20;;;12.60;99.90;;;;;;5051068;28;20380;-57
2022/10/08 03:26:35;;;;;;;11.85;6.35;;;12.60;99.90;;;;;;5050141;28;20021;-53
2022/10/08 03:29:01;;;;;;;16.13;7.78;;;12.60;99.90;;;;;;5051141;28;20104;-59
2022/10/08 03:31:26;;;;;;;13.40;7.65;;;12.60;99.90;;;;;;5050922;28;20055;-56
2022/10/08 03:33:53;;;;;;;10.73;6.80;;;12.60;99.90;;;;;;5051895;28;20051;-57
2022/10/08 03:36:22;;;;;;;10.13;6.72;;;12.60;99.90;;;;;;5051494;28;20103;-55
2022/10/08 03:38:48;;;;;;;12.48;8.40;;;12.60;99.90;;;;;;5050477;28;20020;-56
2022/10/08 03:41:15;;;;;;;12.70;7.13;;;12.60;99.90;;;;;;5050976;28;20028;-60
2022/10/08 03:43:40;;;;;;;14.25;7.22;;;12.60;99.90;;;;;;5050587;28;20147;-56
2022/10/08 03:46:07;;;;;;;13.60;7.38;;;12.50;99.90;;;;;;5050163;28;20075;-56
2022/10/08 03:48:33;;;;;;;11.70;7.85;;;12.40;99.90;;;;;;5050504;28;20100;-55
2022/10/08 03:51:03;;;;;;;14.98;8.23;;;12.40;99.90;;;;;;5051000;28;20156;-56
2022/10/08 03:53:32;;;;;;;17.02;8.43;;;12.40;99.90;;;;;;5049941;28;20079;-51
2022/10/08 03:56:06;;;;;;;13.80;7.50;;;12.40;99.90;;;;;;5054952;28;20072;-54
2022/10/08 03:58:31;;;;;;;12.82;7.32;;;12.40;99.90;;;;;;5054636;28;20044;-56
2022/10/08 04:01:02;;;;;;;14.38;7.10;;;12.40;99.90;;;;;;5054289;28;20181;-58
2022/10/08 04:03:29;;;;;;;11.48;7.35;;;12.30;99.90;;;;;;5054500;28;20369;-53
2022/10/08 04:05:56;;;;;;;15.38;8.35;;;12.20;99.90;;;;;;5054849;28;20029;-55
2022/10/08 04:08:22;;;;;;;16.25;7.80;;;12.20;99.90;;;;;;5053880;28;20013;-50
2022/10/08 04:10:47;;;;;;;14.20;7.55;;;12.20;99.90;;;;;;5054794;28;20035;-56
2022/10/08 04:13:14;;;;;;;10.68;7.30;;;12.20;99.90;;;;;;5054876;28;20112;-54
2022/10/08 04:15:40;;;;;;;14.07;7.97;;;12.20;99.90;;;;;;5053839;28;20047;-55
2022/10/08 04:18:06;;;;;;;16.15;8.60;;;12.30;99.90;;;;;;5054265;28;20021;-57
2022/10/08 04:20:32;;;;;;;15.73;7.47;;;12.30;99.90;;;;;;5054580;28;20025;-58
2022/10/08 04:22:58;;;;;;;17.52;7.68;;;12.40;99.90;;;;;;5053860;28;20056;-55
2022/10/08 04:25:24;;;;;;;15.45;7.28;;;12.50;99.90;;;;;;5054278;28;20068;-56
2022/10/08 04:27:49;;;;;;;12.43;6.82;;;12.50;99.90;;;;;;5054185;28;20513;-54
2022/10/08 04:30:16;;;;;;;14.77;7.85;;;12.60;99.90;;;;;;5052109;28;20454;-57
2022/10/08 04:32:41;;;;;;;14.50;8.00;;;12.60;99.90;;;;;;5053591;28;20021;-61
2022/10/08 04:35:07;;;;;;;13.52;7.45;;;12.60;99.90;;;;;;5052034;28;20037;-55
2022/10/08 04:37:33;;;;;;;11.85;6.32;;;12.60;99.90;;;;;;5053995;28;20152;-57
2022/10/08 04:39:59;;;;;;;11.25;7.20;;;12.60;99.90;;;;;;5054217;28;20140;-52
2022/10/08 04:42:24;;;;;;;12.65;7.57;;;12.60;99.90;;;;;;5053185;28;20029;-56
2022/10/08 04:44:50;;;;;;;14.43;7.20;;;12.60;99.90;;;;;;5053968;28;20104;-52
2022/10/08 04:47:16;;;;;;;13.27;7.20;;;12.60;99.90;;;;;;5054049;28;20021;-54
2022/10/08 04:49:42;;;;;;;11.93;7.22;;;12.60;99.90;;;;;;5053306;28;20159;-51
2022/10/08 04:52:08;;;;;;;10.05;7.00;;;12.60;99.90;;;;;;5054024;28;20021;-56
2022/10/08 04:54:34;;;;;;;13.32;7.30;;;12.60;99.90;;;;;;5053546;28;20040;-53
2022/10/08 04:57:00;;;;;;;11.90;7.50;;;12.60;99.90;;;;;;5053242;28;20017;-59
2022/10/08 04:59:25;;;;;;;12.82;7.03;;;12.60;99.90;;;;;;5052232;28;20036;-55
2022/10/08 05:01:55;;;;;;;15.60;7.88;;;12.50;99.90;;;;;;5054040;28;20025;-59
2022/10/08 05:04:21;;;;;;;13.05;7.15;;;12.50;99.90;;;;;;5053187;28;20020;-57
2022/10/08 05:06:47;;;;;;;11.30;6.25;;;12.50;99.90;;;;;;5052457;28;20025;-58
2022/10/08 05:09:12;;;;;;;17.67;6.82;;;12.40;99.90;;;;;;5053670;28;20017;-49
2022/10/08 05:11:38;;;;;;;10.77;6.32;;;12.30;99.90;;;;;;5052685;28;20064;-55
2022/10/08 05:14:04;;;;;;;12.00;6.60;;;12.20;99.90;;;;;;5053661;28;20025;-54
2022/10/08 05:16:30;;;;;;;12.80;7.60;;;12.10;99.90;;;;;;5053332;28;20108;-57
2022/10/08 05:18:56;;;;;;;15.70;7.35;;;12.00;99.90;;;;;;5052538;28;20040;-53
2022/10/08 05:21:24;;;;;;;16.30;7.53;;;12.00;99.90;;;;;;5053276;28;20021;-52
2022/10/08 05:24:02;;;;;;;13.60;6.95;;;12.00;99.90;;;;;;5052990;28;20032;-53
2022/10/08 05:26:30;;;;;;;11.90;6.15;;;12.00;99.90;;;;;;5051872;28;20025;-65
2022/10/08 05:28:58;;;;;;;13.15;7.13;;;12.10;99.90;;;;;;5053041;28;20100;-53
2022/10/08 05:31:26;;;;;;;12.32;6.38;;;12.00;99.90;;;;;;5052565;28;20474;-57
2022/10/08 05:33:52;;;;;;;14.38;6.35;;;11.90;99.90;;;;;;5053195;28;20028;-54
2022/10/08 05:36:24;;;;;;;10.50;6.75;;;11.80;99.90;;;;;;5052912;28;20493;-50
2022/10/08 05:38:49;;;;;;;12.07;6.65;;;11.80;99.90;;;;;;5052353;28;20108;-58
2022/10/08 05:41:21;;;;;;;14.82;7.72;;;11.80;99.90;;;;;;5052153;28;20040;-55
2022/10/08 05:43:47;;;;;;;;;;;11.70;99.90;;;;;;5053964;28;20056;-61
2022/10/08 05:46:13;;;;;;;12.32;6.50;;;11.60;99.90;;;;;;5052382;28;20007;-69
2022/10/08 05:48:40;;;;;;;13.45;6.88;;;11.60;99.90;;;;;;5052629;28;20449;-57
2022/10/08 05:51:16;;;;;;;15.00;7.72;;;11.50;99.90;;;;;;5052823;28;20025;-58
2022/10/08 05:53:47;;;;;;;14.68;7.70;;;11.40;99.90;;;;;;5051911;28;20036;-65
2022/10/08 05:56:15;;;;;;;12.25;6.20;;;11.40;99.90;;;;;;5053038;28;20113;-54
2022/10/08 05:58:42;;;;;;;14.65;6.90;;;11.40;99.90;;;;;;5052170;28;20025;-73
2022/10/08 06:01:14;;;;;;;13.05;7.60;;;11.30;99.90;;;;;;5052297;28;20087;-53
2022/10/08 06:03:40;;;;;;;14.70;6.70;;;11.30;99.90;;;;;;5050676;28;20025;-56
2022/10/08 06:06:08;;;;;;;13.18;7.47;;;11.30;99.90;;;;;;5050565;28;20075;-68
2022/10/08 06:08:34;;;;;;;12.93;7.53;;;11.40;99.90;;;;;;5050499;28;20124;-72
2022/10/08 06:11:00;;;;;;;14.85;7.43;;;11.50;99.90;;;;;;5049631;28;20035;-53
2022/10/08 06:13:26;;;;;;;16.15;7.32;;;11.60;99.90;;;;;;5050018;28;20021;-71
2022/10/08 06:16:07;;;;;;;12.60;7.13;;;11.60;99.90;;;;;;5051675;28;20052;-54
2022/10/08 06:18:35;;;;;;;13.52;7.57;;;11.70;99.90;;;;;;5050919;28;20049;-70
2022/10/08 06:21:03;;;;;;;16.52;7.45;;;11.60;99.90;;;;;;5051414;28;20642;-57
2022/10/08 06:23:28;;;;;;;13.80;7.95;;;11.50;99.90;;;;;;5051520;28;20017;-60
2022/10/08 06:25:54;;;;;;;13.50;7.10;;;11.50;99.90;;;;;;5051634;28;20421;-59
2022/10/08 06:28:19;;;;;;;11.93;7.00;;;11.50;99.90;;;;;;5051192;28;20016;-54
2022/10/08 06:30:45;;;;;;;15.00;7.13;;;11.40;99.90;;;;;;5052293;28;20040;-63
2022/10/08 06:33:11;;;;;;;15.70;7.45;;;11.40;99.90;;;;;;5051199;28;20108;-62
2022/10/08 06:35:37;;;;;;;16.98;7.85;;;11.40;99.90;;;;;;5051289;28;20028;-62
2022/10/08 06:38:03;;;;;;;15.70;8.10;;;11.40;99.90;;;;;;5052026;28;20021;-57
2022/10/08 06:40:39;;;;;;;14.93;7.32;;;11.40;99.90;;;;;;5051664;28;20028;-60
2022/10/08 06:43:18;;;;;;;11.65;7.00;;;11.40;99.90;;;;;;5051500;28;20104;-62
2022/10/08 06:45:45;;;;;;;14.40;7.55;;;11.40;99.90;;;;;;5051811;28;20032;-61
2022/10/08 06:48:12;;;;;;;12.40;7.43;;;11.40;99.90;;;;;;5050633;28;20024;-53
2022/10/08 06:50:38;;;;;;;12.07;7.22;;;11.40;99.90;;;;;;5051016;28;20025;-67
2022/10/08 06:53:06;;;;;;;17.10;7.95;;;11.40;99.90;;;;;;5051920;28;20102;-70
2022/10/08 06:55:32;;;;;;;10.98;6.03;;;11.40;99.90;;;;;;5051315;28;20098;-75
2022/10/08 06:57:59;;;;;;;12.73;7.35;;;11.50;99.90;;;;;;5051224;28;20099;-67
2022/10/08 07:00:25;;;;;;;14.77;6.80;;;11.50;99.90;;;;;;5051657;28;20023;-70
2022/10/08 07:02:50;;;;;;;14.55;7.57;;;11.50;99.90;;;;;;5051093;28;20016;-69
2022/10/08 07:05:16;;;;;;;10.93;5.90;;;11.50;99.90;;;;;;5052259;28;20025;-73
2022/10/08 07:07:41;;;;;;;11.52;5.45;;;11.60;99.90;;;;;;5051179;28;20107;-64
2022/10/08 07:10:07;;;;;;;17.00;6.85;;;11.60;99.90;;;;;;5051191;28;20481;-65
2022/10/08 07:12:33;;;;;;;12.15;6.93;;;11.60;99.90;;;;;;5051274;28;20045;-66
2022/10/08 07:14:59;;;;;;;13.07;6.80;;;11.70;99.90;;;;;;5051542;28;20517;-60
2022/10/08 07:17:27;;;;;;;15.70;7.40;;;11.70;99.90;;;;;;5050270;28;20059;-55
2022/10/08 07:19:53;;;;;;;15.13;6.40;;;11.70;99.90;;;;;;5051344;28;20060;-51
2022/10/08 07:22:18;;;;;;;9.93;5.40;;;11.70;99.90;;;;;;5051340;28;20013;-56
2022/10/08 07:24:44;;;;;;;14.00;5.60;;;11.80;99.90;;;;;;5049140;28;20473;-56
2022/10/08 07:27:10;;;;;;;10.43;5.82;;;11.80;99.90;;;;;;5051155;28;20063;-52
2022/10/08 07:29:35;;;;;;;14.77;5.45;;;11.90;99.90;;;;;;5050114;28;20017;-52
2022/10/08 07:32:01;;;;;;;7.65;4.47;;;12.00;99.90;;;;;;5050627;28;20405;-54
2022/10/08 07:34:27;;;;;;;10.43;4.10;;;12.00;99.90;;;;;;5049357;28;20032;-54
2022/10/08 07:36:52;;;;;;;11.13;3.83;;;12.10;99.90;;;;;;5051223;28;20439;-53
2022/10/08 07:39:18;;;;;;;6.38;3.95;;;12.10;99.90;;;;;;5050540;28;20099;-51
2022/10/08 07:41:44;;;;;;;7.43;4.43;;;12.10;99.90;;;;;;5051089;28;20029;-53
2022/10/08 07:44:11;;;;;;;9.27;4.13;;;12.20;99.90;;;;;;5051135;28;20013;-55
2022/10/08 07:46:41;;;;;;;10.35;4.13;;;12.30;99.90;;;;;;5050261;28;20024;-55
2022/10/08 07:49:07;;;;;;;10.20;4.07;;;12.30;99.90;;;;;;5050928;28;20409;-57
2022/10/08 07:51:33;;;;;;;9.95;3.33;;;12.40;99.90;;;;;;5051036;28;20032;-55
2022/10/08 07:54:00;;;;;;;6.10;2.88;;;12.40;99.90;;;;;;5050428;28;20025;-62
2022/10/08 07:56:26;;;;;;;9.52;3.00;;;12.40;99.90;;;;;;5050749;28;20025;-58
2022/10/08 07:58:51;;;;;;;7.70;3.35;;;12.50;99.90;;;;;;5050842;28;20028;-55
2022/10/08 08:01:20;;;;;;;9.07;3.05;;;12.60;99.90;;;;;;5050479;28;20119;-64
2022/10/08 08:03:52;;;;;;;5.68;2.40;;;12.60;99.90;;;;;;5050562;28;20473;-57
2022/10/08 08:06:18;;;;;;;7.75;2.33;;;12.70;99.90;;;;;;5050415;28;20095;-66
2022/10/08 08:08:44;;;;;;;6.05;2.22;;;12.70;99.90;;;;;;5050615;28;20040;-64
2022/10/08 08:11:14;;;;;;;9.25;2.28;;;12.80;99.90;;;;;;5051077;28;20021;-56
2022/10/08 08:13:41;;;;;;;5.75;1.85;;;12.80;99.90;;;;;;5049991;28;20029;-55
2022/10/08 08:16:12;;;;;;;7.53;1.77;;;12.90;99.90;;;;;;5050839;28;20043;-58
2022/10/08 08:18:39;;;;;;;6.20;1.83;;;12.90;99.90;;;;;;5050088;28;20066;-53
2022/10/08 08:21:08;;;;;;;4.93;1.30;;;13.00;99.90;;;;;;5050341;28;20113;-54
2022/10/08 08:23:36;;;;;;;5.97;1.95;;;13.00;99.90;;;;;;5050453;28;20025;-55
2022/10/08 08:26:08;;;;;;;5.63;1.90;;;13.00;99.90;;;;;;5050544;28;20355;-56
2022/10/08 08:28:34;;;;;;;6.32;2.15;;;13.10;99.90;;;;;;5049399;28;20017;-56
2022/10/08 08:31:18;;;;;;;5.95;1.60;;;13.10;99.90;;;;;;5050453;28;20466;-54
2022/10/08 08:33:50;;;;;;;4.80;1.60;;;13.20;99.90;;;;;;5050031;28;20432;-51
2022/10/08 08:36:24;;;;;;;7.03;1.63;;;13.20;99.90;;;;;;5049868;28;20041;-59
2022/10/08 08:38:49;;;;;;;4.10;1.33;;;13.30;99.90;;;;;;5050193;28;20025;-52
2022/10/08 08:41:53;;;;;;;7.25;2.35;;;13.30;99.90;;;;;;5052425;28;20630;-56
2022/10/08 08:44:26;;;;;;;1.90;1.30;;;13.40;99.90;;;;;;5052791;28;20035;-63
2022/10/08 08:46:59;;;;;;;3.80;1.40;;;13.40;99.90;;;;;;5054531;28;20028;-72
2022/10/08 08:49:30;;;;;;;4.60;1.63;;;13.40;99.90;;;;;;5053246;28;20033;-69
2022/10/08 08:51:58;;;;;;;3.05;1.20;;;13.50;99.80;;;;;;5054052;28;20470;-58
2022/10/08 08:54:24;;;;;;;7.90;1.50;;;13.60;99.50;;;;;;5041337;28;20378;-69
2022/10/08 08:56:51;;;;;;;4.05;1.00;;;13.60;99.50;;;;;;5045332;28;20025;-67
2022/10/08 08:59:26;;;;;;;3.85;1.08;;;13.70;99.30;;;;;;5054978;28;20029;-52
2022/10/08 09:01:57;;;;;;;5.47;1.20;;;13.70;98.50;;;;;;5052348;28;20078;-59
2022/10/08 09:04:46;;;;;;;6.38;1.45;;;13.80;96.90;;;;;;5051675;28;20029;-57
2022/10/08 09:07:18;;;;;;;6.55;1.63;;;13.90;95.90;;;;;;5050409;28;20067;-58
2022/10/08 09:09:50;;;;;;;3.00;1.15;;;14.00;95.80;;;;;;5051926;28;20040;-51
2022/10/08 09:12:20;;;;;;;5.03;1.30;;;14.10;95.60;;;;;;5052515;28;20151;-55
2022/10/08 09:14:51;;;;;;;2.33;1.02;;;14.10;95.20;;;;;;5052211;28;20065;-57
2022/10/08 09:17:22;;;;;;;5.07;0.98;;;14.20;94.60;;;;;;5052607;28;20058;-65
2022/10/08 09:19:48;;;;;;;7.05;1.30;;;14.20;94.40;;;;;;5052242;28;20049;-62
2022/10/08 09:22:24;;;;;;;4.97;1.27;;;14.20;94.40;;;;;;5050676;28;20369;-50
2022/10/08 09:24:57;;;;;;;6.25;0.82;;;14.20;93.80;;;;;;5050895;28;20029;-52
2022/10/08 09:27:22;;;;;;;5.32;1.02;;;14.20;93.10;;;;;;5051999;28;20381;-52
2022/10/08 09:29:48;;;;;;;5.00;1.20;;;14.30;92.60;;;;;;5051366;28;20029;-54
2022/10/08 09:32:20;;;;;;;2.65;1.05;;;14.30;92.60;;;;;;5049798;28;20144;-56
2022/10/08 09:34:47;;;;;;;3.75;1.00;;;14.30;92.80;;;;;;5051505;28;20033;-54
2022/10/08 09:37:24;;;;;;;3.65;1.08;;;14.40;91.80;;;;;;5052061;28;20020;-60
2022/10/08 09:40:11;;;;;;;4.45;1.40;;;14.50;91.40;;;;;;5051137;28;20025;-57
2022/10/08 09:42:38;;;;;;;6.95;0.90;;;14.70;91.70;;;;;;5051227;28;20116;-54
2022/10/08 09:45:30;;;;;;;1.77;1.08;;;14.90;90.60;;;;;;5049736;28;20154;-55
2022/10/08 09:48:31;;;;;;;5.07;1.20;;;15.00;91.10;;;;;;5052377;28;20048;-53
2022/10/08 09:51:01;;;;;;;5.80;1.13;;;14.90;90.20;;;;;;5011172;28;20355;-56
2022/10/08 09:53:51;;;;;;;3.70;0.95;;;14.90;88.60;;;;;;5042888;28;20052;-58
2022/10/08 09:56:27;;;;;;;8.40;1.27;;;14.90;89.40;;;;;;5051713;28;20094;-56
2022/10/08 09:58:58;;;;;;;3.35;1.30;;;15.00;88.60;;;;;;5051880;28;20163;-57
2022/10/08 10:01:24;;;;;;;2.17;1.08;;;15.00;87.80;;;;;;5051497;28;20033;-58
2022/10/08 10:03:54;;;;;;;5.25;1.08;;;15.00;87.00;;;;;;5051802;28;20017;-61
2022/10/08 10:06:35;;;;;;;3.30;0.95;;;14.90;87.10;;;;;;5050722;28;20029;-56
2022/10/08 10:09:09;;;;;;;2.17;0.75;;;14.80;86.30;;;;;;5051419;28;20404;-59
2022/10/08 10:11:46;;;;;;;4.60;1.00;;;14.80;85.80;;;;;;5050131;28;20489;-59
2022/10/08 10:14:52;;;;;;;2.58;0.70;;;14.80;86.80;;;;;;5050544;28;20021;-69
2022/10/08 10:17:24;;;;;;;5.93;0.93;;;14.90;86.50;;;;;;5035330;28;20076;-56
2022/10/08 10:20:00;;;;;;;6.30;1.05;;;15.20;87.70;;;;;;5050000;28;20553;-72
2022/10/08 10:22:32;;;;;;;1.48;0.70;;;15.40;85.80;;;;;;5050905;28;20025;-55
2022/10/08 10:25:13;;;;;;;1.52;0.70;;;15.50;84.80;;;;;;5051580;28;20457;-61
2022/10/08 10:27:42;;;;;;;4.32;0.77;;;15.70;84.00;;;;;;5049757;28;20033;-67
2022/10/08 10:30:22;;;;;;;3.28;1.17;;;15.70;84.00;;;;;;5051601;28;20029;-52
2022/10/08 10:32:56;;;;;;;3.50;0.95;;;15.60;83.30;;;;;;5050914;28;20056;-57
2022/10/08 10:35:27;;;;;;;3.83;0.90;;;15.50;83.00;;;;;;5050771;28;20082;-56
2022/10/08 10:38:18;;;;;;;5.32;1.10;;;15.40;83.60;;;;;;5051718;28;20025;-62
2022/10/08 10:40:49;;;;;;;4.03;0.93;;;15.40;82.80;;;;;;5050739;28;20021;-50
2022/10/08 10:43:29;;;;;;;3.30;0.75;;;15.40;82.60;;;;;;5051720;28;20025;-55
2022/10/08 10:46:05;;;;;;;5.17;0.80;;;15.50;81.80;;;;;;5051714;28;20055;-64
2022/10/08 10:48:30;;;;;;;4.05;1.02;;;15.50;80.90;;;;;;5050649;28;20025;-59
2022/10/08 10:51:19;;;;;;;6.28;1.33;;;15.50;81.50;;;;;;5051531;28;20032;-59
2022/10/08 10:54:04;;;;;;;1.75;0.93;;;15.50;81.30;;;;;;5051478;28;20082;-49
2022/10/08 10:56:36;;;;;;;3.47;1.05;;;15.50;80.80;;;;;;5050570;28;20068;-56
2022/10/08 10:59:27;;;;;;;6.60;1.15;;;15.40;81.70;;;;;;5051286;28;20434;-52
2022/10/08 11:01:58;;;;;;;1.10;0.75;;;15.30;82.20;;;;;;5050750;28;20025;-55
2022/10/08 11:04:42;;;;;;;3.80;0.88;;;15.30;84.10;;;;;;5050955;28;20485;-63
2022/10/08 11:07:25;;;;;;;6.20;1.13;;;15.40;82.80;;;;;;5049153;28;20051;-61
2022/10/08 11:10:03;;;;;;;7.95;1.30;;;15.30;82.50;;;;;;5050140;28;20032;-63
2022/10/08 11:12:55;;;;;;;4.13;1.40;;;15.20;81.50;;;;;;5051102;28;20071;-62
2022/10/08 11:15:39;;;;;;;5.63;1.60;;;15.10;81.80;;;;;;5050538;28;20125;-64
2022/10/08 11:18:50;;;;;;;3.30;1.10;;;15.10;82.70;;;;;;5050581;28;20021;-56
2022/10/08 11:21:28;;;;;;;5.05;1.15;;;15.10;83.10;;;;;;5047117;28;20493;-60
2022/10/08 11:23:59;;;;;;;5.78;1.20;;;15.20;83.90;;;;;;5050385;28;20063;-54
2022/10/08 11:26:38;;;;;;;5.45;1.15;;;15.30;84.10;;;;;;5050162;28;20029;-56
2022/10/08 11:29:53;;;;;;;3.60;1.30;;;15.40;83.50;;;;;;5049758;28;20501;-53
2022/10/08 11:32:19;;;;;;;5.07;1.10;;;15.50;83.00;;;;;;5030354;28;20037;-50
2022/10/08 11:34:53;;;;;;;4.70;1.42;;;15.60;82.70;;;;;;5049971;28;20017;-54
2022/10/08 11:37:40;;;;;;;5.45;1.40;;;15.70;82.40;;;;;;5049357;28;20029;-53
2022/10/08 11:40:30;;;;;;;4.85;1.20;;;15.80;82.60;;;;;;5049991;28;20028;-65
2022/10/08 11:43:14;;;;;;;2.38;1.10;;;15.80;80.60;;;;;;5050266;28;20036;-62
2022/10/08 11:45:44;;;;;;;1.80;0.77;;;15.90;79.50;;;;;;5048556;28;20089;-48
2022/10/08 11:48:34;;;;;;;3.90;1.13;;;16.00;78.30;;;;;;5048452;28;20071;-46
2022/10/08 11:51:17;;;;;;;7.53;1.52;;;16.30;77.20;;;;;;5057407;28;20037;-52
2022/10/08 11:54:09;;;;;;;2.75;1.27;;;16.40;76.70;;;;;;5069845;28;20032;-52
2022/10/08 11:56:44;;;;;;;2.97;1.00;;;16.40;78.10;;;;;;5068493;28;20067;-54
2022/10/08 11:59:33;;;;;;;3.33;1.00;;;16.20;77.60;;;;;;5069576;28;20021;-54
2022/10/08 12:02:03;;;;;;;4.55;1.02;;;16.00;79.20;;;;;;5070236;28;20029;-52
2022/10/08 12:04:37;;;;;;;1.98;0.82;;;15.80;80.00;;;;;;5069556;28;20365;-55
2022/10/08 12:07:15;;;;;;;5.72;1.13;;;15.60;80.80;;;;;;5070752;28;20106;-69
2022/10/08 12:10:19;;;;;;;5.65;1.30;;;15.40;81.70;;;;;;5069523;28;20032;-72
2022/10/08 12:12:47;;;;;;;1.98;0.70;;;15.10;82.70;;;;;;5069282;28;20029;-55
2022/10/08 12:15:22;;;;;;;2.30;0.70;;;15.00;82.90;;;;;;5069429;28;20032;-55
2022/10/08 12:18:21;;;;;;;3.75;0.82;;;14.90;79.50;;;;;;5073576;28;20100;-67
2022/10/08 12:21:15;;;;;;;3.78;0.77;;;14.90;78.50;;;;;;5073934;28;20032;-71
2022/10/08 12:23:45;;;;;;;3.58;0.93;;;14.90;77.90;;;;;;5073118;28;20098;-62
2022/10/08 12:26:13;;;;;;;5.15;0.75;;;14.80;78.30;;;;;;5071997;28;20078;-66
2022/10/08 12:28:42;;;;;;;3.67;0.70;;;14.90;78.00;;;;;;5073565;28;20055;-61
2022/10/08 12:31:26;;;;;;;4.13;0.57;;;15.10;76.50;;;;;;5073865;28;20074;-57
2022/10/08 12:34:09;;;;;;;2.92;0.88;;;15.30;74.70;;;;;;5073515;28;20012;-55
2022/10/08 12:36:40;;;;;;;2.63;0.70;;;15.50;74.40;;;;;;5073028;28;20111;-57
2022/10/08 12:39:35;;;;;;;6.03;0.73;;;15.70;74.40;;;;;;5071506;28;20024;-64
2022/10/08 12:42:16;;;;;;;4.60;0.80;;;15.90;74.40;;;;;;5073428;28;20024;-68
2022/10/08 12:45:03;;;;;;;6.95;1.00;;;16.10;72.90;;;;;;5073274;28;20024;-67
2022/10/08 12:47:42;;;;;;;4.07;1.00;;;16.20;72.40;;;;;;5072034;28;20032;-60
2022/10/08 12:50:33;;;;;;;2.97;0.70;;;16.10;71.70;;;;;;5073503;28;20166;-67
2022/10/08 12:53:03;;;;;;;3.33;0.87;;;15.80;72.70;;;;;;5071697;28;20029;-63
2022/10/08 12:55:32;;;;;;;4.03;1.00;;;15.70;73.40;;;;;;5071893;28;20072;-57
2022/10/08 12:57:58;;;;;;;5.63;1.15;;;15.50;74.20;;;;;;5072167;28;20101;-58
2022/10/08 13:00:29;;;;;;;5.65;0.95;;;15.50;74.50;;;;;;5072148;28;20461;-67
2022/10/08 13:03:11;;;;;;;5.03;1.08;;;15.50;74.80;;;;;;5073172;28;20065;-59
2022/10/08 13:05:44;;;;;;;2.00;0.73;;;15.50;74.90;;;;;;5072965;28;20024;-59
2022/10/08 13:08:41;;;;;;;2.63;0.90;;;15.50;74.20;;;;;;5072120;28;20043;-62
2022/10/08 13:11:14;;;;;;;2.47;0.80;;;15.50;74.20;;;;;;5072554;28;20056;-61